Portada
METAR-TAF:

METAR-TAF

Aeropuertos :

Jonesboro, Arkansas, Estados Unidos

latitud: 35-50-14N, longitud: 090-38-35W, altitud: 79 m

METAR: falta

Hora: 07:18 (12:18 UTC)

Pronóstico

El informe se hizo hace 56 minutos, a las 11:22 UTC
Pronóstico válido del 06 a las 12 UTC al 07 a las 12 UTC
Viento 4 kt del norte-noreste
Visibilidad: 10 km
Nubes dispersas a una altura de 25000 ft
A partir de las 06 a las 1400 UTC
Viento 7 kt del este-noreste
Visibilidad: 10 km
Escasas nubes a una altura de 25000 ft
A partir de las 06 a las 1700 UTC
Viento 7 kt del este
Visibilidad: 10 km
Cielo despejado
A partir de las 07 a las 0200 UTC
Viento 4 kt del este
Visibilidad: 10 km
Cielo despejado

TAF: KJBR 061122Z 0612/0712 03004KT P6SM SCT250 FM061400 07007KT P6SM FEW250 FM061700 09007KT P6SM SKC FM070200 08004KT P6SM SKC AMD NOT SKED

Observaciones y pronósticos meteorológicos de más de 4000 aeropuertos (mensajes METAR y TAF).

Los puntos amarillos y rojos representan las estaciones disponibles.

Ponga el ratón en el punto deseado para ver el nombre de la estación.

Haga clic para ver las observaciones y los pronósticos meteorológicos.

Para cambiar el mapa : haga clic en los botones verdes con una cruz de color negro para hacer un zoom, en el botón verde con un guión para alejar o en las flechas verdes para mapas adyacentes.


METAR-TAF: